createdAt,value
2018-09-29T00:00:56.838Z,14.47
2018-09-29T00:03:27.171Z,12.57
2018-09-29T00:05:57.862Z,15.77
2018-09-29T00:08:28.196Z,11.07
2018-09-29T00:10:58.441Z,9.70
2018-09-29T00:13:28.697Z,11.20
2018-09-29T00:15:59.059Z,9.97
2018-09-29T00:18:29.583Z,11.53
2018-09-29T00:20:59.907Z,9.57
2018-09-29T00:23:30.199Z,11.37
2018-09-29T00:26:00.467Z,7.10
2018-09-29T00:28:30.712Z,14.17
2018-09-29T00:31:01.104Z,9.37
2018-09-29T00:33:31.351Z,7.47
2018-09-29T00:36:01.598Z,6.50
2018-09-29T00:38:31.889Z,7.00
2018-09-29T00:41:02.149Z,11.57
2018-09-29T00:43:32.929Z,5.60
2018-09-29T00:46:03.756Z,8.57
2018-09-29T00:48:34.208Z,7.43
2018-09-29T00:51:04.930Z,6.50
2018-09-29T00:53:35.351Z,8.27
2018-09-29T00:56:05.595Z,6.90
2018-09-29T00:58:35.840Z,8.63
2018-09-29T01:01:06.640Z,6.37
2018-09-29T01:03:36.902Z,7.27
2018-09-29T01:06:07.187Z,5.90
2018-09-29T01:08:37.663Z,5.57
2018-09-29T01:11:07.977Z,6.27
2018-09-29T01:13:38.245Z,7.27
2018-09-29T01:16:08.671Z,6.97
2018-09-29T01:18:38.941Z,8.63
2018-09-29T01:21:10.823Z,7.97
2018-09-29T01:23:41.073Z,13.37
2018-09-29T01:26:11.424Z,10.20
2018-09-29T01:28:41.771Z,12.20
2018-09-29T01:31:12.046Z,14.03
2018-09-29T01:33:42.288Z,13.20
2018-09-29T01:36:12.796Z,5.92
2018-09-29T01:38:43.049Z,8.77
2018-09-29T01:41:13.297Z,9.73
2018-09-29T01:43:43.628Z,15.67
2018-09-29T01:46:13.872Z,8.07
2018-09-29T01:48:44.121Z,12.13
2018-09-29T01:51:14.511Z,10.67
2018-09-29T01:53:44.756Z,12.50
2018-09-29T01:56:15.076Z,10.17
2018-09-29T01:58:45.355Z,9.17
2018-09-29T02:01:15.806Z,8.03
2018-09-29T02:03:46.151Z,10.07
2018-09-29T02:06:16.404Z,11.67
2018-09-29T02:08:46.673Z,15.10
2018-09-29T02:11:16.969Z,8.53
2018-09-29T02:13:47.227Z,9.17
2018-09-29T02:16:17.509Z,5.90
2018-09-29T02:18:47.810Z,10.30
2018-09-29T02:21:18.082Z,9.80
2018-09-29T02:23:48.436Z,6.53
2018-09-29T02:26:19.272Z,8.27
2018-09-29T02:28:49.600Z,8.00
2018-09-29T02:31:20.029Z,9.07
2018-09-29T02:33:50.305Z,7.07
2018-09-29T02:36:20.595Z,5.83
2018-09-29T02:38:50.842Z,8.57
2018-09-29T02:41:21.075Z,8.60
2018-09-29T02:43:51.424Z,12.87
2018-09-29T02:46:21.677Z,7.40
2018-09-29T02:48:51.929Z,14.83
2018-09-29T02:51:24.960Z,8.80
2018-09-29T02:53:55.229Z,6.53
2018-09-29T02:56:25.519Z,5.97
2018-09-29T02:58:55.759Z,5.27
2018-09-29T03:01:26.073Z,10.57
2018-09-29T03:03:56.462Z,7.17
2018-09-29T03:06:26.944Z,6.90
2018-09-29T03:08:57.209Z,6.00
2018-09-29T03:11:27.481Z,6.43
2018-09-29T03:13:57.743Z,7.20
2018-09-29T03:16:27.981Z,6.70
2018-09-29T03:46:19.931Z,16.17
2018-09-29T03:48:53.035Z,13.17
2018-09-29T03:51:23.288Z,12.50
2018-09-29T03:53:53.647Z,11.93
2018-09-29T03:56:24.008Z,11.57
2018-09-29T03:58:55.102Z,15.53
2018-09-29T04:01:25.736Z,18.23
2018-09-29T04:03:55.992Z,23.77
2018-09-29T04:06:26.284Z,87.20
2018-09-29T04:08:56.556Z,81.97
2018-09-29T04:11:26.833Z,91.73
2018-09-29T04:13:57.218Z,77.70
2018-09-29T04:16:27.697Z,59.97
2018-09-29T04:18:57.958Z,138.80
2018-09-29T04:21:32.343Z,43.90
2018-09-29T04:24:02.603Z,30.50
2018-09-29T04:26:32.877Z,34.27
2018-09-29T04:29:03.261Z,22.10
2018-09-29T04:31:33.502Z,20.07
2018-09-29T04:34:03.759Z,14.43
2018-09-29T04:36:34.029Z,11.90
2018-09-29T04:39:05.501Z,13.93
2018-09-29T04:41:35.871Z,14.43
2018-09-29T04:44:06.370Z,17.00
2018-09-29T04:46:37.073Z,16.93
2018-09-29T04:49:07.571Z,15.93
2018-09-29T04:51:38.086Z,16.03
2018-09-29T04:54:08.471Z,17.63
2018-09-29T04:56:38.840Z,21.93
2018-09-29T04:59:09.169Z,20.83
2018-09-29T05:01:41.991Z,20.70
2018-09-29T05:04:12.381Z,35.83
2018-09-29T05:06:42.787Z,37.50
2018-09-29T05:09:13.085Z,65.27
2018-09-29T05:11:43.367Z,44.33
2018-09-29T05:14:13.632Z,114.37
2018-09-29T05:16:43.950Z,101.67
2018-09-29T05:19:14.232Z,38.97
2018-09-29T05:21:44.608Z,48.40
2018-09-29T05:24:14.894Z,21.77
2018-09-29T05:26:45.216Z,18.50
2018-09-29T05:29:15.473Z,31.80
2018-09-29T05:31:45.964Z,34.87
2018-09-29T05:34:16.279Z,110.97
2018-09-29T05:36:46.550Z,156.60
2018-09-29T05:39:17.332Z,459.10
2018-09-29T05:41:47.639Z,100.17
2018-09-29T05:44:18.267Z,45.33
2018-09-29T05:46:48.529Z,28.77
2018-09-29T05:49:18.822Z,24.47
2018-09-29T05:51:49.139Z,29.63
2018-09-29T05:54:19.521Z,47.73
2018-09-29T05:58:13.888Z,321.70
2018-09-29T06:00:44.178Z,70.10
2018-09-29T06:03:14.475Z,49.20
2018-09-29T06:05:44.856Z,36.07
2018-09-29T06:08:15.429Z,44.87
2018-09-29T06:10:45.696Z,30.77
2018-09-29T06:13:16.560Z,45.60
2018-09-29T06:15:47.040Z,53.90
2018-09-29T06:18:17.336Z,47.20
2018-09-29T06:20:47.663Z,37.97
2018-09-29T06:23:18.140Z,44.33
2018-09-29T06:25:48.414Z,179.93
2018-09-29T06:28:18.719Z,215.00
2018-09-29T06:30:49.225Z,125.50
2018-09-29T06:35:54.767Z,48.70
2018-09-29T06:38:25.046Z,40.10
2018-09-29T06:40:55.475Z,49.00
2018-09-29T06:43:25.921Z,28.17
2018-09-29T06:45:56.293Z,18.60
2018-09-29T06:48:26.553Z,21.33
2018-09-29T06:50:56.890Z,22.53
2018-09-29T06:53:27.305Z,35.77
2018-09-29T06:55:57.725Z,36.07
2018-09-29T06:58:27.990Z,41.70
2018-09-29T07:00:58.348Z,41.20
2018-09-29T07:03:28.613Z,35.23
2018-09-29T07:05:59.668Z,19.90
2018-09-29T07:08:29.943Z,11.83
2018-09-29T07:11:00.272Z,15.87
2018-09-29T07:13:30.585Z,25.00
2018-09-29T07:16:00.924Z,25.17
2018-09-29T07:18:31.822Z,33.70
2018-09-29T07:21:02.144Z,20.10
2018-09-29T07:23:32.495Z,29.60
2018-09-29T07:26:02.769Z,19.77
2018-09-29T07:28:33.120Z,25.40
2018-09-29T07:31:03.408Z,24.60
2018-09-29T07:33:33.706Z,21.37
2018-09-29T07:36:04.137Z,20.13
2018-09-29T07:38:34.474Z,20.73
2018-09-29T07:41:04.790Z,23.83
2018-09-29T07:43:35.159Z,19.47
2018-09-29T07:46:05.549Z,36.40
2018-09-29T07:48:36.811Z,65.10
2018-09-29T07:51:07.275Z,88.13
2018-09-29T07:53:37.991Z,64.77
2018-09-29T07:56:08.435Z,77.50
2018-09-29T07:58:38.911Z,108.60
2018-09-29T08:01:09.221Z,85.60
2018-09-29T08:03:39.557Z,43.23
2018-09-29T08:06:09.896Z,40.63
2018-09-29T08:08:40.196Z,29.27
2018-09-29T08:11:10.872Z,26.77
2018-09-29T08:13:41.265Z,25.50
2018-09-29T08:16:11.629Z,50.53
2018-09-29T08:18:41.963Z,62.93
2018-09-29T08:21:12.304Z,28.67
2018-09-29T08:23:42.624Z,21.00
2018-09-29T08:26:13.421Z,20.40
2018-09-29T08:28:43.692Z,15.00
2018-09-29T08:31:13.992Z,17.67
2018-09-29T08:33:44.306Z,13.43
2018-09-29T08:36:14.564Z,16.83
2018-09-29T08:38:44.873Z,14.10
2018-09-29T08:41:15.287Z,15.67
2018-09-29T08:43:45.573Z,13.63
2018-09-29T08:46:15.880Z,13.93
2018-09-29T08:48:46.214Z,11.47
2018-09-29T08:51:16.493Z,17.47
2018-09-29T08:53:46.835Z,15.33
2018-09-29T08:56:17.466Z,16.07
2018-09-29T08:58:47.760Z,27.43
2018-09-29T09:01:18.708Z,24.27
2018-09-29T09:03:49.967Z,18.10
2018-09-29T09:06:20.851Z,18.20
2018-09-29T09:08:51.721Z,11.03
2018-09-29T09:11:22.718Z,16.33
2018-09-29T09:13:53.544Z,11.80
2018-09-29T09:16:24.454Z,24.00
2018-09-29T09:18:55.309Z,8.77
2018-09-29T09:21:26.218Z,46.30
2018-09-29T09:23:57.163Z,207.00
2018-09-29T09:26:28.754Z,97.47
2018-09-29T09:28:59.848Z,17.53
2018-09-29T09:31:30.740Z,11.97
2018-09-29T09:34:01.604Z,7.03
2018-09-29T09:36:32.493Z,23.07
2018-09-29T09:39:04.672Z,23.67
2018-09-29T09:41:35.628Z,15.00
2018-09-29T09:44:06.766Z,20.83
2018-09-29T09:46:38.506Z,13.27
2018-09-29T09:49:09.333Z,13.57
2018-09-29T09:51:40.222Z,36.43
2018-09-29T09:54:11.074Z,53.63
2018-09-29T09:56:42.496Z,83.63
2018-09-29T09:59:13.774Z,56.27
2018-09-29T10:03:54.301Z,51.17
2018-09-29T10:06:25.241Z,30.27
2018-09-29T10:08:56.354Z,30.07
2018-09-29T10:11:27.249Z,21.37
2018-09-29T10:13:58.442Z,13.13
2018-09-29T10:16:29.297Z,9.53
2018-09-29T10:19:00.143Z,8.50
2018-09-29T10:21:30.976Z,13.63
2018-09-29T10:24:01.943Z,7.57
2018-09-29T10:26:32.769Z,6.63
2018-09-29T10:29:04.130Z,12.30
2018-09-29T10:31:34.963Z,19.53
2018-09-29T10:34:05.883Z,21.40
2018-09-29T10:36:36.703Z,52.17
2018-09-29T10:39:10.196Z,43.93
2018-09-29T10:41:41.607Z,25.83
2018-09-29T10:44:13.258Z,21.07
2018-09-29T10:46:44.313Z,24.10
2018-09-29T10:49:15.186Z,36.67
2018-09-29T10:51:46.508Z,28.37
2018-09-29T10:54:17.428Z,35.00
2018-09-29T10:56:48.416Z,29.53
2018-09-29T10:59:19.389Z,32.60
2018-09-29T11:01:50.264Z,46.07
2018-09-29T11:04:21.136Z,58.50
2018-09-29T11:06:53.593Z,51.97
2018-09-29T11:09:24.498Z,60.63
2018-09-29T11:11:55.334Z,38.07
2018-09-29T11:14:26.360Z,38.17
2018-09-29T11:16:57.415Z,35.37
2018-09-29T11:19:28.287Z,32.50
2018-09-29T11:21:59.124Z,27.63
2018-09-29T11:24:29.997Z,37.57
2018-09-29T11:27:00.902Z,29.83
2018-09-29T11:29:31.824Z,30.07
2018-09-29T11:32:02.692Z,22.73
2018-09-29T11:34:33.577Z,19.60
2018-09-29T11:37:04.433Z,24.60
2018-09-29T11:39:35.377Z,23.80
2018-09-29T11:42:06.222Z,23.60
2018-09-29T11:44:37.145Z,18.37
2018-09-29T11:47:08.016Z,33.43
2018-09-29T11:49:38.894Z,33.63
2018-09-29T11:52:09.737Z,26.43
2018-09-29T11:54:40.596Z,16.00
2018-09-29T11:57:11.528Z,14.83
2018-09-29T11:59:42.444Z,14.77
2018-09-29T12:02:13.465Z,30.13
2018-09-29T12:04:44.656Z,22.33
2018-09-29T12:07:15.596Z,33.93
2018-09-29T12:09:46.591Z,35.43
2018-09-29T12:12:17.441Z,23.67
2018-09-29T12:14:48.405Z,23.80
2018-09-29T12:17:19.267Z,34.90
2018-09-29T12:19:50.123Z,25.60
2018-09-29T12:22:21.026Z,26.57
2018-09-29T12:24:52.049Z,25.43
2018-09-29T12:27:24.920Z,33.13
2018-09-29T12:29:54.518Z,36.77
2018-09-29T12:32:25.566Z,33.17
2018-09-29T12:34:56.473Z,30.07
2018-09-29T12:37:27.402Z,30.63
2018-09-29T12:39:58.436Z,24.80
2018-09-29T12:42:29.279Z,32.53
2018-09-29T12:45:00.254Z,37.90
2018-09-29T12:47:31.332Z,20.23
2018-09-29T12:50:02.207Z,15.93
2018-09-29T12:52:33.038Z,18.23
2018-09-29T12:55:03.943Z,35.87
2018-09-29T12:57:34.875Z,22.57
2018-09-29T13:00:06.366Z,20.30
2018-09-29T13:02:37.216Z,21.83
2018-09-29T13:05:08.245Z,21.33
2018-09-29T13:07:39.305Z,26.40
2018-09-29T13:10:10.213Z,19.87
2018-09-29T13:12:41.147Z,26.47
2018-09-29T13:15:12.080Z,26.63
2018-09-29T13:17:43.148Z,23.57
2018-09-29T13:20:14.061Z,22.90
2018-09-29T13:22:44.939Z,20.13
2018-09-29T13:25:16.034Z,37.07
2018-09-29T13:27:49.104Z,25.13
2018-09-29T13:30:20.067Z,24.00
2018-09-29T13:32:50.893Z,24.47
2018-09-29T13:35:21.767Z,25.17
2018-09-29T13:37:52.608Z,27.03
2018-09-29T13:40:23.467Z,18.20
2018-09-29T13:42:54.318Z,20.83
2018-09-29T13:45:25.245Z,42.43
2018-09-29T13:47:56.087Z,15.73
2018-09-29T13:50:26.949Z,24.63
2018-09-29T13:52:57.805Z,22.70
2018-09-29T13:55:28.667Z,17.80
2018-09-29T13:57:59.624Z,17.30
2018-09-29T14:00:30.569Z,20.23
2018-09-29T14:03:01.435Z,24.10
2018-09-29T14:05:32.300Z,36.43
2018-09-29T14:08:03.114Z,28.83
2018-09-29T14:10:33.969Z,20.83
2018-09-29T14:13:05.451Z,21.53
2018-09-29T14:15:36.659Z,20.37
2018-09-29T14:18:07.516Z,14.67
2018-09-29T14:20:38.377Z,20.30
2018-09-29T14:23:09.221Z,21.47
2018-09-29T14:25:40.213Z,12.27
2018-09-29T14:28:11.049Z,16.07
2018-09-29T14:30:46.185Z,33.00
2018-09-29T14:33:18.942Z,23.90
2018-09-29T14:35:49.821Z,39.30
2018-09-29T14:38:20.667Z,35.10
2018-09-29T14:40:51.643Z,42.57
2018-09-29T14:43:22.488Z,30.20
2018-09-29T14:45:53.410Z,25.07
2018-09-29T14:48:24.301Z,42.03
2018-09-29T14:50:55.265Z,139.87
2018-09-29T14:53:26.128Z,658.33
2018-09-29T14:55:57.057Z,434.10
2018-09-29T14:58:28.099Z,134.63
2018-09-29T15:00:59.163Z,27.67
2018-09-29T15:03:30.037Z,31.73
2018-09-29T15:06:01.011Z,22.73
2018-09-29T15:08:32.072Z,17.67
2018-09-29T15:11:02.947Z,20.23
2018-09-29T15:13:33.773Z,19.87
2018-09-29T15:16:05.113Z,20.43
2018-09-29T15:18:35.945Z,19.23
2018-09-29T15:21:07.025Z,23.93
2018-09-29T15:23:37.885Z,23.97
2018-09-29T15:26:08.902Z,25.87
2018-09-29T15:28:39.876Z,32.03
2018-09-29T15:31:10.894Z,40.77
2018-09-29T15:33:41.738Z,25.63
2018-09-29T15:36:12.640Z,25.87
2018-09-29T15:38:43.472Z,20.77
2018-09-29T15:41:14.355Z,24.90
2018-09-29T15:43:47.710Z,25.77
2018-09-29T15:46:18.728Z,51.20
2018-09-29T15:48:49.615Z,36.97
2018-09-29T15:51:20.676Z,57.47
2018-09-29T15:53:51.588Z,54.37
2018-09-29T15:56:22.459Z,52.33
2018-09-29T15:58:53.389Z,73.23
2018-09-29T16:01:24.336Z,102.33
2018-09-29T16:03:55.187Z,102.33
2018-09-29T16:06:26.073Z,64.67
2018-09-29T16:08:57.057Z,54.70
2018-09-29T16:11:28.129Z,62.93
2018-09-29T16:13:58.976Z,56.57
2018-09-29T16:16:29.898Z,97.90
2018-09-29T16:19:00.761Z,80.23
2018-09-29T16:21:31.689Z,62.90
2018-09-29T16:24:02.701Z,60.47
2018-09-29T16:26:33.580Z,56.83
2018-09-29T16:29:04.438Z,82.97
2018-09-29T16:31:35.377Z,62.10
2018-09-29T16:34:06.225Z,104.33
2018-09-29T16:36:37.531Z,230.53
2018-09-29T16:39:11.832Z,128.53
2018-09-29T16:41:43.119Z,202.30
2018-09-29T16:44:13.976Z,184.53
2018-09-29T16:46:44.922Z,150.37
2018-09-29T16:49:15.780Z,149.43
2018-09-29T16:51:46.686Z,141.07
2018-09-29T16:54:17.570Z,195.93
2018-09-29T16:56:48.944Z,147.60
2018-09-29T16:59:19.904Z,188.93
2018-09-29T17:01:50.864Z,134.53
2018-09-29T17:04:21.742Z,169.40
2018-09-29T17:06:52.864Z,178.37
2018-09-29T17:09:23.760Z,199.53
2018-09-29T17:11:54.653Z,165.13
2018-09-29T17:14:25.504Z,210.70
2018-09-29T17:16:56.452Z,185.30
2018-09-29T17:19:27.958Z,172.63
2018-09-29T17:21:59.067Z,156.93
2018-09-29T17:24:30.164Z,175.10
2018-09-29T17:27:01.073Z,140.83
2018-09-29T17:29:31.938Z,119.57
2018-09-29T17:32:03.200Z,129.93
2018-09-29T17:34:34.095Z,145.20
2018-09-29T17:37:05.217Z,152.60
2018-09-29T17:39:36.105Z,140.33
2018-09-29T17:42:07.048Z,152.20
2018-09-29T17:44:37.935Z,159.17
2018-09-29T17:47:08.899Z,176.93
2018-09-29T17:49:39.767Z,272.77
2018-09-29T17:52:10.700Z,185.67
2018-09-29T17:54:41.575Z,141.97
2018-09-29T17:57:12.772Z,112.77
2018-09-29T17:59:51.944Z,90.63
2018-09-29T18:02:22.863Z,86.43
2018-09-29T18:04:53.731Z,84.23
2018-09-29T18:07:24.861Z,103.53
2018-09-29T18:09:56.067Z,137.97
2018-09-29T18:12:27.081Z,131.60
2018-09-29T18:14:57.990Z,165.80
2018-09-29T18:17:28.929Z,181.63
2018-09-29T18:19:59.888Z,82.30
2018-09-29T18:22:30.885Z,70.63
2018-09-29T18:25:01.844Z,104.90
2018-09-29T18:27:37.831Z,108.30
2018-09-29T18:30:09.213Z,78.93
2018-09-29T18:32:40.093Z,64.67
2018-09-29T18:35:10.979Z,74.73
2018-09-29T18:37:41.875Z,83.57
2018-09-29T18:40:12.805Z,80.57
2018-09-29T18:42:44.103Z,83.20
2018-09-29T18:45:15.060Z,212.60
2018-09-29T18:47:46.382Z,89.30
2018-09-29T18:50:17.631Z,90.07
2018-09-29T18:52:48.898Z,91.03
2018-09-29T18:55:20.216Z,92.53
2018-09-29T18:57:51.316Z,129.00
2018-09-29T19:00:22.315Z,115.90
2018-09-29T19:02:53.245Z,138.60
2018-09-29T19:05:24.122Z,133.80
2018-09-29T19:07:55.118Z,112.17
2018-09-29T19:10:26.073Z,103.37
2018-09-29T19:12:57.083Z,133.53
2018-09-29T19:15:28.178Z,89.10
2018-09-29T19:17:59.096Z,68.90
2018-09-29T19:20:29.986Z,84.23
2018-09-29T19:23:01.029Z,39.30
2018-09-29T19:25:31.917Z,31.67
2018-09-29T19:28:02.944Z,41.20
2018-09-29T19:30:33.869Z,73.40
2018-09-29T19:33:04.794Z,40.23
2018-09-29T19:35:35.786Z,53.23
2018-09-29T19:38:06.738Z,61.93
2018-09-29T19:40:37.818Z,56.80
2018-09-29T19:43:08.774Z,53.33
2018-09-29T19:45:39.729Z,65.70
2018-09-29T19:48:10.795Z,79.67
2018-09-29T19:50:41.712Z,62.13
2018-09-29T19:53:12.655Z,73.13
2018-09-29T19:55:43.541Z,61.17
2018-09-29T19:58:14.507Z,58.73
2018-09-29T20:00:50.498Z,48.90
2018-09-29T20:03:26.328Z,31.80
2018-09-29T20:06:02.245Z,34.50
2018-09-29T20:08:38.141Z,35.53
2018-09-29T20:11:14.354Z,40.40
2018-09-29T20:13:50.093Z,39.97
2018-09-29T20:16:26.032Z,35.70
2018-09-29T20:19:02.079Z,40.80
2018-09-29T20:21:38.089Z,35.20
2018-09-29T20:24:14.204Z,28.73
2018-09-29T20:26:50.095Z,31.00
2018-09-29T20:29:25.939Z,30.33
2018-09-29T20:33:26.144Z,33.03
2018-09-29T20:36:02.198Z,39.20
2018-09-29T20:38:37.864Z,35.30
2018-09-29T20:41:13.730Z,37.20
2018-09-29T20:43:49.559Z,34.47
2018-09-29T20:46:25.525Z,29.80
2018-09-29T20:49:01.362Z,30.97
2018-09-29T20:51:37.494Z,33.27
2018-09-29T20:54:13.435Z,29.33
2018-09-29T20:56:50.385Z,30.90
2018-09-29T20:59:26.163Z,29.27
2018-09-29T21:02:02.168Z,35.70
2018-09-29T21:04:38.016Z,36.60
2018-09-29T21:07:13.896Z,35.03
2018-09-29T21:09:49.721Z,36.53
2018-09-29T21:12:25.601Z,35.20
2018-09-29T21:15:01.424Z,55.03
2018-09-29T21:17:37.339Z,71.17
2018-09-29T21:20:13.225Z,72.60
2018-09-29T21:22:49.096Z,72.73
2018-09-29T21:25:25.162Z,71.70
2018-09-29T21:28:01.173Z,67.63
2018-09-29T21:30:37.044Z,67.77
2018-09-29T21:33:13.368Z,48.60
2018-09-29T21:35:49.236Z,47.40
2018-09-29T21:38:25.143Z,36.97
2018-09-29T21:41:01.008Z,38.27
2018-09-29T21:43:37.008Z,44.37
2018-09-29T21:46:12.824Z,44.07
2018-09-29T21:48:49.032Z,54.93
2018-09-29T21:51:24.912Z,63.70
2018-09-29T21:54:01.083Z,43.70
2018-09-29T21:56:37.530Z,105.00
2018-09-29T21:59:13.559Z,100.27
2018-09-29T22:01:49.413Z,64.73
2018-09-29T22:04:25.520Z,50.37
2018-09-29T22:08:25.502Z,28.80
2018-09-29T22:11:01.407Z,21.37
2018-09-29T22:13:37.200Z,17.80
2018-09-29T22:16:13.057Z,16.40
2018-09-29T22:18:49.141Z,16.40
2018-09-29T22:21:29.299Z,17.87
2018-09-29T22:24:05.248Z,15.70
2018-09-29T22:26:44.005Z,13.67
2018-09-29T22:29:19.811Z,10.57
2018-09-29T22:31:55.739Z,19.93
2018-09-29T22:34:31.856Z,20.43
2018-09-29T22:37:08.037Z,18.50
2018-09-29T22:39:43.800Z,16.67
2018-09-29T22:42:19.652Z,19.20
2018-09-29T22:44:57.176Z,20.97
2018-09-29T22:47:33.179Z,18.77
2018-09-29T22:50:09.017Z,23.73
2018-09-29T22:52:44.931Z,27.57
2018-09-29T22:55:20.752Z,26.07
2018-09-29T22:57:56.643Z,26.63
2018-09-29T23:00:33.334Z,26.47
2018-09-29T23:03:09.274Z,24.30
2018-09-29T23:05:45.301Z,24.90
2018-09-29T23:08:21.985Z,26.93
2018-09-29T23:10:57.902Z,25.70
2018-09-29T23:13:33.743Z,29.10
2018-09-29T23:16:10.091Z,27.13
2018-09-29T23:18:45.968Z,28.37
2018-09-29T23:21:21.845Z,28.07
2018-09-29T23:23:57.767Z,24.10
2018-09-29T23:26:33.854Z,21.40
2018-09-29T23:29:09.970Z,24.53
2018-09-29T23:31:45.787Z,24.77
2018-09-29T23:34:21.657Z,21.80
2018-09-29T23:36:57.492Z,23.27
2018-09-29T23:39:33.370Z,20.53
2018-09-29T23:42:09.185Z,29.33
2018-09-29T23:44:45.036Z,24.47
2018-09-29T23:47:20.939Z,24.13
2018-09-29T23:49:56.887Z,27.20
2018-09-29T23:52:32.711Z,20.00
2018-09-29T23:55:08.527Z,20.97
2018-09-29T23:57:44.365Z,23.57
